sensor_id;sensor_type;location;lat;lon;timestamp;temperature;humidity
23562;DHT22;11959;49.418;8.728;2023-11-18T00:01:20;7.70;99.90
23562;DHT22;11959;49.418;8.728;2023-11-18T00:03:46;7.70;99.90
23562;DHT22;11959;49.418;8.728;2023-11-18T00:06:12;7.70;99.90
23562;DHT22;11959;49.418;8.728;2023-11-18T00:08:38;7.80;99.90
23562;DHT22;11959;49.418;8.728;2023-11-18T00:11:04;7.70;99.90
23562;DHT22;11959;49.418;8.728;2023-11-18T00:13:30;7.70;99.90
23562;DHT22;11959;49.418;8.728;2023-11-18T00:15:56;7.70;99.90
23562;DHT22;11959;49.418;8.728;2023-11-18T00:18:23;7.70;99.90
23562;DHT22;11959;49.418;8.728;2023-11-18T00:20:48;7.70;99.90
23562;DHT22;11959;49.418;8.728;2023-11-18T00:23:16;7.70;99.90
23562;DHT22;11959;49.418;8.728;2023-11-18T00:25:42;7.70;99.90
23562;DHT22;11959;49.418;8.728;2023-11-18T00:28:10;7.70;99.90
23562;DHT22;11959;49.418;8.728;2023-11-18T00:30:37;7.70;99.90
23562;DHT22;11959;49.418;8.728;2023-11-18T00:33:02;7.70;99.90
23562;DHT22;11959;49.418;8.728;2023-11-18T00:35:28;7.70;99.90
23562;DHT22;11959;49.418;8.728;2023-11-18T00:37:57;7.70;99.90
23562;DHT22;11959;49.418;8.728;2023-11-18T00:40:24;7.70;99.90
23562;DHT22;11959;49.418;8.728;2023-11-18T00:42:49;7.60;99.90
23562;DHT22;11959;49.418;8.728;2023-11-18T00:45:15;7.60;99.90
23562;DHT22;11959;49.418;8.728;2023-11-18T00:47:41;7.60;99.90
23562;DHT22;11959;49.418;8.728;2023-11-18T00:50:07;7.60;99.90
23562;DHT22;11959;49.418;8.728;2023-11-18T00:52:36;7.60;99.90
23562;DHT22;11959;49.418;8.728;2023-11-18T00:55:07;7.60;99.90
23562;DHT22;11959;49.418;8.728;2023-11-18T00:57:34;7.50;99.90
23562;DHT22;11959;49.418;8.728;2023-11-18T01:00:00;7.50;99.90
23562;DHT22;11959;49.418;8.728;2023-11-18T01:02:26;7.40;99.90
23562;DHT22;11959;49.418;8.728;2023-11-18T01:04:53;7.40;99.90
23562;DHT22;11959;49.418;8.728;2023-11-18T01:07:19;7.40;99.90
23562;DHT22;11959;49.418;8.728;2023-11-18T01:09:44;7.40;99.90
23562;DHT22;11959;49.418;8.728;2023-11-18T01:12:10;7.40;99.90
23562;DHT22;11959;49.418;8.728;2023-11-18T01:14:37;7.40;99.90
23562;DHT22;11959;49.418;8.728;2023-11-18T01:17:04;7.40;99.90
23562;DHT22;11959;49.418;8.728;2023-11-18T01:19:30;7.40;99.90
23562;DHT22;11959;49.418;8.728;2023-11-18T01:21:55;7.40;99.90
23562;DHT22;11959;49.418;8.728;2023-11-18T01:24:21;7.50;99.90
23562;DHT22;11959;49.418;8.728;2023-11-18T01:26:47;7.50;99.90
23562;DHT22;11959;49.418;8.728;2023-11-18T01:29:13;7.50;99.90
23562;DHT22;11959;49.418;8.728;2023-11-18T01:31:39;7.50;99.90
23562;DHT22;11959;49.418;8.728;2023-11-18T01:34:06;7.40;99.90
23562;DHT22;11959;49.418;8.728;2023-11-18T01:36:33;7.40;99.90
23562;DHT22;11959;49.418;8.728;2023-11-18T01:38:59;7.50;99.90
23562;DHT22;11959;49.418;8.728;2023-11-18T01:41:25;7.40;99.90
23562;DHT22;11959;49.418;8.728;2023-11-18T01:43:51;7.40;99.90
23562;DHT22;11959;49.418;8.728;2023-11-18T01:46:19;7.40;99.90
23562;DHT22;11959;49.418;8.728;2023-11-18T01:48:45;7.40;99.90
23562;DHT22;11959;49.418;8.728;2023-11-18T01:51:12;7.40;99.90
23562;DHT22;11959;49.418;8.728;2023-11-18T01:53:38;7.40;99.90
23562;DHT22;11959;49.418;8.728;2023-11-18T01:56:06;7.40;99.90
23562;DHT22;11959;49.418;8.728;2023-11-18T01:58:35;7.30;99.90
23562;DHT22;11959;49.418;8.728;2023-11-18T02:01:02;7.30;99.90
23562;DHT22;11959;49.418;8.728;2023-11-18T02:03:32;7.30;99.90
23562;DHT22;11959;49.418;8.728;2023-11-18T02:05:58;7.30;99.90
23562;DHT22;11959;49.418;8.728;2023-11-18T02:08:24;7.20;99.90
23562;DHT22;11959;49.418;8.728;2023-11-18T02:11:05;7.20;99.90
23562;DHT22;11959;49.418;8.728;2023-11-18T02:13:39;7.20;99.90
23562;DHT22;11959;49.418;8.728;2023-11-18T02:16:07;7.10;99.90
23562;DHT22;11959;49.418;8.728;2023-11-18T02:18:35;7.10;99.90
23562;DHT22;11959;49.418;8.728;2023-11-18T02:21:07;7.10;99.90
23562;DHT22;11959;49.418;8.728;2023-11-18T02:23:33;7.00;99.90
23562;DHT22;11959;49.418;8.728;2023-11-18T02:25:59;7.00;99.90
23562;DHT22;11959;49.418;8.728;2023-11-18T02:28:27;6.90;99.90
23562;DHT22;11959;49.418;8.728;2023-11-18T02:31:22;6.90;99.90
23562;DHT22;11959;49.418;8.728;2023-11-18T02:34:01;6.90;99.90
23562;DHT22;11959;49.418;8.728;2023-11-18T02:36:36;6.80;99.90
23562;DHT22;11959;49.418;8.728;2023-11-18T02:39:12;6.80;99.90
23562;DHT22;11959;49.418;8.728;2023-11-18T02:41:47;6.70;99.90
23562;DHT22;11959;49.418;8.728;2023-11-18T02:44:14;6.60;99.90
23562;DHT22;11959;49.418;8.728;2023-11-18T02:46:43;6.60;99.90
23562;DHT22;11959;49.418;8.728;2023-11-18T02:49:09;6.50;99.90
23562;DHT22;11959;49.418;8.728;2023-11-18T02:51:35;6.50;99.90
23562;DHT22;11959;49.418;8.728;2023-11-18T02:54:08;6.40;99.90
23562;DHT22;11959;49.418;8.728;2023-11-18T02:56:39;6.40;99.90
23562;DHT22;11959;49.418;8.728;2023-11-18T02:59:05;6.30;99.90
23562;DHT22;11959;49.418;8.728;2023-11-18T03:01:32;6.30;99.90
23562;DHT22;11959;49.418;8.728;2023-11-18T03:04:01;6.30;99.90
23562;DHT22;11959;49.418;8.728;2023-11-18T03:06:27;6.30;99.90
23562;DHT22;11959;49.418;8.728;2023-11-18T03:08:53;6.30;99.90
23562;DHT22;11959;49.418;8.728;2023-11-18T03:11:19;6.30;99.90
23562;DHT22;11959;49.418;8.728;2023-11-18T03:13:45;6.30;99.90
23562;DHT22;11959;49.418;8.728;2023-11-18T03:16:14;6.30;99.90
23562;DHT22;11959;49.418;8.728;2023-11-18T03:18:40;6.30;99.90
23562;DHT22;11959;49.418;8.728;2023-11-18T03:21:11;6.30;99.90
23562;DHT22;11959;49.418;8.728;2023-11-18T03:23:38;6.30;99.90
23562;DHT22;11959;49.418;8.728;2023-11-18T03:26:04;6.20;99.90
23562;DHT22;11959;49.418;8.728;2023-11-18T03:28:31;6.30;99.90
23562;DHT22;11959;49.418;8.728;2023-11-18T03:30:56;6.20;99.90
23562;DHT22;11959;49.418;8.728;2023-11-18T03:33:22;6.10;99.90
23562;DHT22;11959;49.418;8.728;2023-11-18T03:35:48;6.20;99.90
23562;DHT22;11959;49.418;8.728;2023-11-18T03:38:14;6.10;99.90
23562;DHT22;11959;49.418;8.728;2023-11-18T03:40:42;6.10;99.90
23562;DHT22;11959;49.418;8.728;2023-11-18T03:43:10;6.10;99.90
23562;DHT22;11959;49.418;8.728;2023-11-18T03:45:39;6.10;99.90
23562;DHT22;11959;49.418;8.728;2023-11-18T03:48:05;6.20;99.90
23562;DHT22;11959;49.418;8.728;2023-11-18T03:50:32;6.20;99.90
23562;DHT22;11959;49.418;8.728;2023-11-18T03:52:57;6.30;99.90
23562;DHT22;11959;49.418;8.728;2023-11-18T03:55:24;6.30;99.90
23562;DHT22;11959;49.418;8.728;2023-11-18T03:57:51;6.30;99.90
23562;DHT22;11959;49.418;8.728;2023-11-18T04:00:17;6.30;99.90
23562;DHT22;11959;49.418;8.728;2023-11-18T04:02:43;6.30;99.90
23562;DHT22;11959;49.418;8.728;2023-11-18T04:05:11;6.40;99.90
23562;DHT22;11959;49.418;8.728;2023-11-18T04:07:37;6.40;99.90
23562;DHT22;11959;49.418;8.728;2023-11-18T04:10:04;6.40;99.90
23562;DHT22;11959;49.418;8.728;2023-11-18T04:12:34;6.40;99.90
23562;DHT22;11959;49.418;8.728;2023-11-18T04:15:00;6.50;99.90
23562;DHT22;11959;49.418;8.728;2023-11-18T04:17:26;6.50;99.90
23562;DHT22;11959;49.418;8.728;2023-11-18T04:19:53;6.50;99.90
23562;DHT22;11959;49.418;8.728;2023-11-18T04:22:22;6.50;99.90
23562;DHT22;11959;49.418;8.728;2023-11-18T04:24:47;6.50;99.90
23562;DHT22;11959;49.418;8.728;2023-11-18T04:27:13;6.50;99.90
23562;DHT22;11959;49.418;8.728;2023-11-18T04:29:39;6.50;99.90
23562;DHT22;11959;49.418;8.728;2023-11-18T04:32:06;6.60;99.90
23562;DHT22;11959;49.418;8.728;2023-11-18T04:34:36;6.60;99.90
23562;DHT22;11959;49.418;8.728;2023-11-18T04:37:05;6.50;99.90
23562;DHT22;11959;49.418;8.728;2023-11-18T04:39:34;6.50;99.90
23562;DHT22;11959;49.418;8.728;2023-11-18T04:42:00;6.50;99.90
23562;DHT22;11959;49.418;8.728;2023-11-18T04:44:29;6.50;99.90
23562;DHT22;11959;49.418;8.728;2023-11-18T04:46:57;6.50;99.90
23562;DHT22;11959;49.418;8.728;2023-11-18T04:49:22;6.50;99.90
23562;DHT22;11959;49.418;8.728;2023-11-18T04:51:48;6.50;99.90
23562;DHT22;11959;49.418;8.728;2023-11-18T04:54:14;6.50;99.90
23562;DHT22;11959;49.418;8.728;2023-11-18T04:56:39;6.60;99.90
23562;DHT22;11959;49.418;8.728;2023-11-18T04:59:05;6.60;99.90
23562;DHT22;11959;49.418;8.728;2023-11-18T05:01:32;6.50;99.90
23562;DHT22;11959;49.418;8.728;2023-11-18T05:03:57;6.50;99.90
23562;DHT22;11959;49.418;8.728;2023-11-18T05:06:24;6.50;99.90
23562;DHT22;11959;49.418;8.728;2023-11-18T05:08:50;6.50;99.90
23562;DHT22;11959;49.418;8.728;2023-11-18T05:11:15;6.50;99.90
23562;DHT22;11959;49.418;8.728;2023-11-18T05:13:41;6.50;99.90
23562;DHT22;11959;49.418;8.728;2023-11-18T05:16:07;6.50;99.90
23562;DHT22;11959;49.418;8.728;2023-11-18T05:18:33;6.50;99.90
23562;DHT22;11959;49.418;8.728;2023-11-18T05:21:03;6.50;99.90
23562;DHT22;11959;49.418;8.728;2023-11-18T05:23:31;6.50;99.90
23562;DHT22;11959;49.418;8.728;2023-11-18T05:25:57;6.50;99.90
23562;DHT22;11959;49.418;8.728;2023-11-18T05:28:24;6.50;99.90
23562;DHT22;11959;49.418;8.728;2023-11-18T05:30:50;6.50;99.90
23562;DHT22;11959;49.418;8.728;2023-11-18T05:33:17;6.50;99.90
23562;DHT22;11959;49.418;8.728;2023-11-18T05:35:44;6.50;99.90
23562;DHT22;11959;49.418;8.728;2023-11-18T05:38:20;6.50;99.90
23562;DHT22;11959;49.418;8.728;2023-11-18T05:40:50;6.50;99.90
23562;DHT22;11959;49.418;8.728;2023-11-18T05:43:27;6.50;99.90
23562;DHT22;11959;49.418;8.728;2023-11-18T05:45:55;6.50;99.90
23562;DHT22;11959;49.418;8.728;2023-11-18T05:48:42;6.50;99.90
23562;DHT22;11959;49.418;8.728;2023-11-18T05:51:08;6.50;99.90
23562;DHT22;11959;49.418;8.728;2023-11-18T05:53:34;6.50;99.90
23562;DHT22;11959;49.418;8.728;2023-11-18T05:56:01;6.60;99.90
23562;DHT22;11959;49.418;8.728;2023-11-18T05:58:27;6.70;99.90
23562;DHT22;11959;49.418;8.728;2023-11-18T06:00:53;6.60;99.90
23562;DHT22;11959;49.418;8.728;2023-11-18T06:03:19;6.60;99.90
23562;DHT22;11959;49.418;8.728;2023-11-18T06:05:45;6.50;99.90
23562;DHT22;11959;49.418;8.728;2023-11-18T06:08:12;6.60;99.90
23562;DHT22;11959;49.418;8.728;2023-11-18T06:10:37;6.50;99.90
23562;DHT22;11959;49.418;8.728;2023-11-18T06:13:04;6.50;99.90
23562;DHT22;11959;49.418;8.728;2023-11-18T06:15:29;6.50;99.90
23562;DHT22;11959;49.418;8.728;2023-11-18T06:17:55;6.50;99.90
23562;DHT22;11959;49.418;8.728;2023-11-18T06:20:21;6.60;99.90
23562;DHT22;11959;49.418;8.728;2023-11-18T06:22:49;6.60;99.90
23562;DHT22;11959;49.418;8.728;2023-11-18T06:25:15;6.60;99.90
23562;DHT22;11959;49.418;8.728;2023-11-18T06:27:43;6.60;99.90
23562;DHT22;11959;49.418;8.728;2023-11-18T06:30:12;6.70;99.90
23562;DHT22;11959;49.418;8.728;2023-11-18T06:32:37;6.70;99.90
23562;DHT22;11959;49.418;8.728;2023-11-18T06:35:05;6.60;99.90
23562;DHT22;11959;49.418;8.728;2023-11-18T06:37:34;6.60;99.90
23562;DHT22;11959;49.418;8.728;2023-11-18T06:40:00;6.60;99.90
23562;DHT22;11959;49.418;8.728;2023-11-18T06:42:25;6.70;99.90
23562;DHT22;11959;49.418;8.728;2023-11-18T06:44:51;6.70;99.90
23562;DHT22;11959;49.418;8.728;2023-11-18T06:47:17;6.70;99.90
23562;DHT22;11959;49.418;8.728;2023-11-18T06:49:45;6.80;99.90
23562;DHT22;11959;49.418;8.728;2023-11-18T06:52:13;6.80;99.90
23562;DHT22;11959;49.418;8.728;2023-11-18T06:54:41;6.80;99.90
23562;DHT22;11959;49.418;8.728;2023-11-18T06:57:07;6.80;99.90
23562;DHT22;11959;49.418;8.728;2023-11-18T06:59:32;6.80;99.90
23562;DHT22;11959;49.418;8.728;2023-11-18T07:01:58;6.80;99.90
23562;DHT22;11959;49.418;8.728;2023-11-18T07:04:24;6.80;99.90
23562;DHT22;11959;49.418;8.728;2023-11-18T07:06:50;6.80;99.90
23562;DHT22;11959;49.418;8.728;2023-11-18T07:09:16;6.80;99.90
23562;DHT22;11959;49.418;8.728;2023-11-18T07:11:46;6.90;99.90
23562;DHT22;11959;49.418;8.728;2023-11-18T07:14:12;6.90;99.90
23562;DHT22;11959;49.418;8.728;2023-11-18T07:16:41;6.90;99.90
23562;DHT22;11959;49.418;8.728;2023-11-18T07:19:10;6.90;99.90
23562;DHT22;11959;49.418;8.728;2023-11-18T07:21:41;7.00;99.90
23562;DHT22;11959;49.418;8.728;2023-11-18T07:24:07;7.00;99.90
23562;DHT22;11959;49.418;8.728;2023-11-18T07:26:32;7.10;99.90
23562;DHT22;11959;49.418;8.728;2023-11-18T07:28:58;7.10;99.90
23562;DHT22;11959;49.418;8.728;2023-11-18T07:31:23;7.00;99.90
23562;DHT22;11959;49.418;8.728;2023-11-18T07:33:50;7.10;99.90
23562;DHT22;11959;49.418;8.728;2023-11-18T07:36:16;7.10;99.90
23562;DHT22;11959;49.418;8.728;2023-11-18T07:38:42;7.10;99.90
23562;DHT22;11959;49.418;8.728;2023-11-18T07:41:08;7.10;99.90
23562;DHT22;11959;49.418;8.728;2023-11-18T07:43:34;7.10;99.90
23562;DHT22;11959;49.418;8.728;2023-11-18T07:46:02;7.10;99.90
23562;DHT22;11959;49.418;8.728;2023-11-18T07:48:28;7.20;99.90
23562;DHT22;11959;49.418;8.728;2023-11-18T07:50:54;7.20;99.90
23562;DHT22;11959;49.418;8.728;2023-11-18T07:53:19;7.20;99.90
23562;DHT22;11959;49.418;8.728;2023-11-18T07:55:46;7.20;99.90
23562;DHT22;11959;49.418;8.728;2023-11-18T07:58:15;7.30;99.90
23562;DHT22;11959;49.418;8.728;2023-11-18T08:00:44;7.40;99.90
23562;DHT22;11959;49.418;8.728;2023-11-18T08:03:13;7.40;99.90
23562;DHT22;11959;49.418;8.728;2023-11-18T08:05:43;7.40;99.90
23562;DHT22;11959;49.418;8.728;2023-11-18T08:08:10;7.40;99.90
23562;DHT22;11959;49.418;8.728;2023-11-18T08:10:37;7.40;99.90
23562;DHT22;11959;49.418;8.728;2023-11-18T08:13:06;7.40;99.90
23562;DHT22;11959;49.418;8.728;2023-11-18T08:15:34;7.50;99.90
23562;DHT22;11959;49.418;8.728;2023-11-18T08:18:00;7.50;99.90
23562;DHT22;11959;49.418;8.728;2023-11-18T08:20:26;7.50;99.90
23562;DHT22;11959;49.418;8.728;2023-11-18T08:22:52;7.50;99.90
23562;DHT22;11959;49.418;8.728;2023-11-18T08:25:18;7.50;99.90
23562;DHT22;11959;49.418;8.728;2023-11-18T08:27:44;7.60;99.90
23562;DHT22;11959;49.418;8.728;2023-11-18T08:30:13;7.60;99.90
23562;DHT22;11959;49.418;8.728;2023-11-18T08:32:39;7.70;99.90
23562;DHT22;11959;49.418;8.728;2023-11-18T08:35:08;7.70;99.90
23562;DHT22;11959;49.418;8.728;2023-11-18T08:37:38;7.70;99.90
23562;DHT22;11959;49.418;8.728;2023-11-18T08:40:05;7.70;99.90
23562;DHT22;11959;49.418;8.728;2023-11-18T08:42:44;7.80;99.90
23562;DHT22;11959;49.418;8.728;2023-11-18T08:45:20;7.80;99.90
23562;DHT22;11959;49.418;8.728;2023-11-18T08:47:53;7.80;99.90
23562;DHT22;11959;49.418;8.728;2023-11-18T08:50:19;7.90;99.90
23562;DHT22;11959;49.418;8.728;2023-11-18T08:52:49;7.90;99.90
23562;DHT22;11959;49.418;8.728;2023-11-18T08:55:18;8.00;99.90
23562;DHT22;11959;49.418;8.728;2023-11-18T08:57:47;8.00;99.90
23562;DHT22;11959;49.418;8.728;2023-11-18T09:00:35;8.00;99.90
23562;DHT22;11959;49.418;8.728;2023-11-18T09:03:14;8.10;99.90
23562;DHT22;11959;49.418;8.728;2023-11-18T09:05:44;8.20;99.90
23562;DHT22;11959;49.418;8.728;2023-11-18T09:08:22;8.20;99.90
23562;DHT22;11959;49.418;8.728;2023-11-18T09:10:48;8.20;99.90
23562;DHT22;11959;49.418;8.728;2023-11-18T09:13:14;8.30;99.90
23562;DHT22;11959;49.418;8.728;2023-11-18T09:15:40;8.30;99.90
23562;DHT22;11959;49.418;8.728;2023-11-18T09:18:05;8.30;99.90
23562;DHT22;11959;49.418;8.728;2023-11-18T09:20:35;8.30;99.90
23562;DHT22;11959;49.418;8.728;2023-11-18T09:23:01;8.40;99.90
23562;DHT22;11959;49.418;8.728;2023-11-18T09:25:27;8.50;99.90
23562;DHT22;11959;49.418;8.728;2023-11-18T09:27:53;8.60;99.90
23562;DHT22;11959;49.418;8.728;2023-11-18T09:30:19;8.50;99.90
23562;DHT22;11959;49.418;8.728;2023-11-18T09:32:44;8.60;99.90
23562;DHT22;11959;49.418;8.728;2023-11-18T09:35:13;8.60;99.90
23562;DHT22;11959;49.418;8.728;2023-11-18T09:37:42;8.60;99.90
23562;DHT22;11959;49.418;8.728;2023-11-18T09:40:13;8.60;99.90
23562;DHT22;11959;49.418;8.728;2023-11-18T09:42:39;8.70;99.90
23562;DHT22;11959;49.418;8.728;2023-11-18T09:45:05;8.80;99.90
23562;DHT22;11959;49.418;8.728;2023-11-18T09:47:42;8.80;99.90
23562;DHT22;11959;49.418;8.728;2023-11-18T09:50:10;8.80;99.90
23562;DHT22;11959;49.418;8.728;2023-11-18T09:52:42;8.80;99.90
23562;DHT22;11959;49.418;8.728;2023-11-18T09:56:05;8.80;99.90
23562;DHT22;11959;49.418;8.728;2023-11-18T09:58:13;8.90;99.90
23562;DHT22;11959;49.418;8.728;2023-11-18T10:00:41;8.90;99.90
23562;DHT22;11959;49.418;8.728;2023-11-18T10:03:08;9.00;99.90
23562;DHT22;11959;49.418;8.728;2023-11-18T10:05:36;9.00;99.90
23562;DHT22;11959;49.418;8.728;2023-11-18T10:08:05;9.00;99.90
23562;DHT22;11959;49.418;8.728;2023-11-18T10:10:34;9.00;99.90
23562;DHT22;11959;49.418;8.728;2023-11-18T10:13:03;9.10;99.90
23562;DHT22;11959;49.418;8.728;2023-11-18T10:15:47;9.10;99.90
23562;DHT22;11959;49.418;8.728;2023-11-18T10:18:17;9.20;99.90
23562;DHT22;11959;49.418;8.728;2023-11-18T10:20:49;9.10;99.90
23562;DHT22;11959;49.418;8.728;2023-11-18T10:23:19;9.10;99.90
23562;DHT22;11959;49.418;8.728;2023-11-18T10:25:56;9.10;99.90
23562;DHT22;11959;49.418;8.728;2023-11-18T10:28:26;9.10;99.90
23562;DHT22;11959;49.418;8.728;2023-11-18T10:31:00;9.10;99.90
23562;DHT22;11959;49.418;8.728;2023-11-18T10:33:36;9.10;99.90
23562;DHT22;11959;49.418;8.728;2023-11-18T10:36:03;9.10;99.90
23562;DHT22;11959;49.418;8.728;2023-11-18T10:38:30;9.00;99.90
23562;DHT22;11959;49.418;8.728;2023-11-18T10:40:58;9.10;99.90
23562;DHT22;11959;49.418;8.728;2023-11-18T10:43:24;9.10;99.90
23562;DHT22;11959;49.418;8.728;2023-11-18T10:46:04;9.10;99.90
23562;DHT22;11959;49.418;8.728;2023-11-18T10:48:32;9.10;99.90
23562;DHT22;11959;49.418;8.728;2023-11-18T10:50:58;9.10;99.90
23562;DHT22;11959;49.418;8.728;2023-11-18T10:53:24;9.20;99.90
23562;DHT22;11959;49.418;8.728;2023-11-18T10:55:52;9.20;99.90
23562;DHT22;11959;49.418;8.728;2023-11-18T10:58:18;9.20;99.90
23562;DHT22;11959;49.418;8.728;2023-11-18T11:00:51;9.30;99.90
23562;DHT22;11959;49.418;8.728;2023-11-18T11:03:21;9.30;99.90
23562;DHT22;11959;49.418;8.728;2023-11-18T11:05:49;9.30;99.90
23562;DHT22;11959;49.418;8.728;2023-11-18T11:08:15;9.30;99.90
23562;DHT22;11959;49.418;8.728;2023-11-18T11:10:44;9.30;99.90
23562;DHT22;11959;49.418;8.728;2023-11-18T11:13:10;9.30;99.90
23562;DHT22;11959;49.418;8.728;2023-11-18T11:15:43;9.30;99.90
23562;DHT22;11959;49.418;8.728;2023-11-18T11:18:21;9.30;99.90
23562;DHT22;11959;49.418;8.728;2023-11-18T11:21:11;9.30;99.90
23562;DHT22;11959;49.418;8.728;2023-11-18T11:29:32;9.40;99.90
23562;DHT22;11959;49.418;8.728;2023-11-18T11:32:18;9.40;99.90
23562;DHT22;11959;49.418;8.728;2023-11-18T11:34:58;9.40;99.90
23562;DHT22;11959;49.418;8.728;2023-11-18T11:37:32;9.40;99.90
23562;DHT22;11959;49.418;8.728;2023-11-18T11:40:00;9.40;99.90
23562;DHT22;11959;49.418;8.728;2023-11-18T11:42:31;9.50;99.90
23562;DHT22;11959;49.418;8.728;2023-11-18T11:44:57;9.50;99.90
23562;DHT22;11959;49.418;8.728;2023-11-18T11:47:25;9.50;99.90
23562;DHT22;11959;49.418;8.728;2023-11-18T11:50:13;9.50;99.90
23562;DHT22;11959;49.418;8.728;2023-11-18T11:52:46;9.50;99.90
23562;DHT22;11959;49.418;8.728;2023-11-18T11:55:36;9.50;99.90
23562;DHT22;11959;49.418;8.728;2023-11-18T11:58:04;9.50;99.90
23562;DHT22;11959;49.418;8.728;2023-11-18T12:00:31;9.50;99.90
23562;DHT22;11959;49.418;8.728;2023-11-18T12:03:01;9.50;99.90
23562;DHT22;11959;49.418;8.728;2023-11-18T12:05:30;9.50;99.90
23562;DHT22;11959;49.418;8.728;2023-11-18T12:07:59;9.50;99.90
23562;DHT22;11959;49.418;8.728;2023-11-18T12:10:30;9.50;99.90
23562;DHT22;11959;49.418;8.728;2023-11-18T12:13:12;9.50;99.90
23562;DHT22;11959;49.418;8.728;2023-11-18T12:15:49;9.50;99.90
23562;DHT22;11959;49.418;8.728;2023-11-18T12:18:29;9.50;99.90
23562;DHT22;11959;49.418;8.728;2023-11-18T12:20:57;9.40;99.90
23562;DHT22;11959;49.418;8.728;2023-11-18T12:23:27;9.40;99.90
23562;DHT22;11959;49.418;8.728;2023-11-18T12:25:54;9.40;99.90
23562;DHT22;11959;49.418;8.728;2023-11-18T12:28:30;9.50;99.90
23562;DHT22;11959;49.418;8.728;2023-11-18T12:31:00;9.40;99.90
23562;DHT22;11959;49.418;8.728;2023-11-18T12:41:39;9.40;99.90
23562;DHT22;11959;49.418;8.728;2023-11-18T12:44:30;9.40;99.90
23562;DHT22;11959;49.418;8.728;2023-11-18T12:47:04;9.40;99.90
23562;DHT22;11959;49.418;8.728;2023-11-18T12:49:40;9.30;99.90
23562;DHT22;11959;49.418;8.728;2023-11-18T12:52:08;9.40;99.90
23562;DHT22;11959;49.418;8.728;2023-11-18T12:54:34;9.40;99.90
23562;DHT22;11959;49.418;8.728;2023-11-18T12:57:03;9.30;99.90
23562;DHT22;11959;49.418;8.728;2023-11-18T12:59:36;9.30;99.90
23562;DHT22;11959;49.418;8.728;2023-11-18T13:02:09;9.30;99.90
23562;DHT22;11959;49.418;8.728;2023-11-18T13:04:41;9.30;99.90
23562;DHT22;11959;49.418;8.728;2023-11-18T13:07:08;9.30;99.90
23562;DHT22;11959;49.418;8.728;2023-11-18T13:09:34;9.30;99.90
23562;DHT22;11959;49.418;8.728;2023-11-18T13:12:03;9.30;99.90
23562;DHT22;11959;49.418;8.728;2023-11-18T13:14:34;9.30;99.90
23562;DHT22;11959;49.418;8.728;2023-11-18T13:17:08;9.30;99.90
23562;DHT22;11959;49.418;8.728;2023-11-18T13:19:35;9.40;99.90
23562;DHT22;11959;49.418;8.728;2023-11-18T13:22:01;9.40;99.90
23562;DHT22;11959;49.418;8.728;2023-11-18T13:24:30;9.40;99.90
23562;DHT22;11959;49.418;8.728;2023-11-18T13:26:57;9.40;99.90
23562;DHT22;11959;49.418;8.728;2023-11-18T13:29:24;9.40;99.90
23562;DHT22;11959;49.418;8.728;2023-11-18T13:31:50;9.40;99.90
23562;DHT22;11959;49.418;8.728;2023-11-18T13:34:19;9.40;99.90
23562;DHT22;11959;49.418;8.728;2023-11-18T13:36:46;9.40;99.90
23562;DHT22;11959;49.418;8.728;2023-11-18T13:39:19;9.50;99.90
23562;DHT22;11959;49.418;8.728;2023-11-18T13:41:49;9.50;99.90
23562;DHT22;11959;49.418;8.728;2023-11-18T13:47:04;9.40;99.90
23562;DHT22;11959;49.418;8.728;2023-11-18T13:49:37;9.40;99.90
23562;DHT22;11959;49.418;8.728;2023-11-18T13:52:06;9.40;99.90
23562;DHT22;11959;49.418;8.728;2023-11-18T13:54:40;9.40;99.90
23562;DHT22;11959;49.418;8.728;2023-11-18T13:57:08;9.40;99.90
23562;DHT22;11959;49.418;8.728;2023-11-18T13:59:35;9.40;99.90
23562;DHT22;11959;49.418;8.728;2023-11-18T14:02:01;9.40;99.90
23562;DHT22;11959;49.418;8.728;2023-11-18T14:04:30;9.50;99.90
23562;DHT22;11959;49.418;8.728;2023-11-18T14:06:59;9.50;99.90
23562;DHT22;11959;49.418;8.728;2023-11-18T14:09:26;9.40;99.90
23562;DHT22;11959;49.418;8.728;2023-11-18T14:11:53;9.50;99.90
23562;DHT22;11959;49.418;8.728;2023-11-18T14:14:25;9.50;99.90
23562;DHT22;11959;49.418;8.728;2023-11-18T14:16:51;9.50;99.90
23562;DHT22;11959;49.418;8.728;2023-11-18T14:19:19;9.50;99.90
23562;DHT22;11959;49.418;8.728;2023-11-18T14:21:45;9.50;99.90
23562;DHT22;11959;49.418;8.728;2023-11-18T14:24:11;9.50;99.90
23562;DHT22;11959;49.418;8.728;2023-11-18T14:26:40;9.50;99.90
23562;DHT22;11959;49.418;8.728;2023-11-18T14:29:07;9.40;99.90
23562;DHT22;11959;49.418;8.728;2023-11-18T14:31:36;9.40;99.90
23562;DHT22;11959;49.418;8.728;2023-11-18T14:34:01;9.40;99.90
23562;DHT22;11959;49.418;8.728;2023-11-18T14:36:28;9.40;99.90
23562;DHT22;11959;49.418;8.728;2023-11-18T14:38:54;9.40;99.90
23562;DHT22;11959;49.418;8.728;2023-11-18T14:41:20;9.30;99.90
23562;DHT22;11959;49.418;8.728;2023-11-18T14:43:50;9.30;99.90
23562;DHT22;11959;49.418;8.728;2023-11-18T14:46:15;9.20;99.90
23562;DHT22;11959;49.418;8.728;2023-11-18T14:48:41;9.20;99.90
23562;DHT22;11959;49.418;8.728;2023-11-18T14:51:08;9.20;99.90
23562;DHT22;11959;49.418;8.728;2023-11-18T14:53:33;9.10;99.90
23562;DHT22;11959;49.418;8.728;2023-11-18T14:56:00;9.10;99.90
23562;DHT22;11959;49.418;8.728;2023-11-18T14:58:26;9.10;99.90
23562;DHT22;11959;49.418;8.728;2023-11-18T15:00:52;9.10;99.90
23562;DHT22;11959;49.418;8.728;2023-11-18T15:03:22;9.00;99.90
23562;DHT22;11959;49.418;8.728;2023-11-18T15:05:48;9.00;99.90
23562;DHT22;11959;49.418;8.728;2023-11-18T15:08:14;9.00;99.90
23562;DHT22;11959;49.418;8.728;2023-11-18T15:10:41;9.00;99.90
23562;DHT22;11959;49.418;8.728;2023-11-18T15:13:11;9.00;99.90
23562;DHT22;11959;49.418;8.728;2023-11-18T15:15:44;9.00;99.90
23562;DHT22;11959;49.418;8.728;2023-11-18T15:18:13;8.90;99.90
23562;DHT22;11959;49.418;8.728;2023-11-18T15:20:43;8.90;99.90
23562;DHT22;11959;49.418;8.728;2023-11-18T15:23:12;9.00;99.90
23562;DHT22;11959;49.418;8.728;2023-11-18T15:25:39;8.90;99.90
23562;DHT22;11959;49.418;8.728;2023-11-18T15:28:05;8.90;99.90
23562;DHT22;11959;49.418;8.728;2023-11-18T15:30:39;8.90;99.90
23562;DHT22;11959;49.418;8.728;2023-11-18T15:33:05;8.90;99.90
23562;DHT22;11959;49.418;8.728;2023-11-18T15:35:34;8.90;99.90
23562;DHT22;11959;49.418;8.728;2023-11-18T15:38:03;8.80;99.90
23562;DHT22;11959;49.418;8.728;2023-11-18T15:40:31;8.80;99.90
23562;DHT22;11959;49.418;8.728;2023-11-18T15:42:56;8.80;99.90
23562;DHT22;11959;49.418;8.728;2023-11-18T15:45:23;8.80;99.90
23562;DHT22;11959;49.418;8.728;2023-11-18T15:47:54;8.80;99.90
23562;DHT22;11959;49.418;8.728;2023-11-18T15:50:20;8.80;99.90
23562;DHT22;11959;49.418;8.728;2023-11-18T15:52:47;8.80;99.90
23562;DHT22;11959;49.418;8.728;2023-11-18T15:55:14;8.80;99.90
23562;DHT22;11959;49.418;8.728;2023-11-18T15:57:44;8.70;99.90
23562;DHT22;11959;49.418;8.728;2023-11-18T16:00:11;8.70;99.90
23562;DHT22;11959;49.418;8.728;2023-11-18T16:02:45;8.70;99.90
23562;DHT22;11959;49.418;8.728;2023-11-18T16:05:19;8.70;99.90
23562;DHT22;11959;49.418;8.728;2023-11-18T16:07:47;8.70;99.90
23562;DHT22;11959;49.418;8.728;2023-11-18T16:10:14;8.60;99.90